Terminal Aerodrome Forecast
Issued by NWS

Home | Current Version | Previous Version | Text Only | Print | Product List | Glossary On
Versions: 1 2 3 4 5 6 7 8 9 10 11 12
473
FTUS46 KHNX 252325
TAFFAT
TAF
KFAT 252325Z 2600/2624 VRB04KT P6SM SCT200
     FM260400 VRB04KT P6SM BKN100
     FM261400 VRB03KT P6SM SCT250=

USA.gov is the U.S. government's official web portal to all federal, state and local government web resources and services.